Sontag, MS (39665)

10:16 CST le 25 janvier 2015 (GMT -0600)
Stronghope | Change Station
CLOSE
Current Station
Stations météorologiques personnelles
Location: Wesson, MS
Altitude: 269 ft
Stations météo à proximité

Alt. 269 ft 31.72 °N, 90.24 °W | Updated 17 seconds ago

Ciel dégagé
Ciel dégagé
56.4 ° F
Paraît 56.4 ° F
N
2.0
Vent Variable Vent de ONO
Gusts 11.0 mph

Aujourd'hui
Haut(e) -- | Bas -- ° F
--% Risque de précip.
Hier
Haut(e) -- | Bas -- ° F
Precip. -- pouce
6:57 AM 5:28 PM
Lune montante, 33% visible
Pression 29.96 pouce
Visibilité -9999.0 Miles terrestres
Nuages Ciel dégagé
Point de rosée 43 ° F
Humidité 60%
Précipitations 0.00 pouce
Profondeur de la couche neigeuse Non disponible.
UV 3 sur 12
Pollen 5.90 sur 12
Qualité de l'air Non disponible.
Flu Activity Non disponible.
METAR K1R7 251615Z AUTO 23008KT CLR 13/04 A2996 RMK AO2

More Conditions Fewer Conditions

Pression 29.96 pouce
Visibilité -9999.0 Miles terrestres
Nuages Ciel dégagé
Point de rosée 43 ° F
Humidité 60%
Précipitations 0.00 pouce
Profondeur de la couche neigeuse Non disponible.
UV 3 sur 12
Pollen 5.90 sur 12
Qualité de l'air Non disponible.
Flu Activity Non disponible.
METAR K1R7 251615Z AUTO 23008KT CLR 13/04 A2996 RMK AO2

More Conditions Fewer Conditions

10-Day Weather Forecast

Almanac

Astronomie

Jan. 25, 2015 Lever Coucher
Temps réel
Crépuscule civil
Crépuscule nautique
Crépuscule astronomique
Lune
Durée de lumière visible
Longueur du jour
Tomorrow will be .
, % of the Moon is Illuminated

Extrêmes aujourd'hui

State Highs State Lows

Community

WunderPhotos

Upload Photos

1,789,939 Photos téléchargées !

WunderBlogs® & News

Nearby

Qualité de l'air

  Qualité de l'air Indice de la qualité de l'air Polluant
Not available.

Épaisseur de neige

Station Depth Altitude

Activité sismique

Ville Distance Mag. Time & Date
Minimum magnitude displayed is 2.5.

Températures des eaux côtières

Lieu Température

Stations météo à proximité